Time;durP1;ratioP1;P1;durP2;ratioP2;P2;SDS_P1;SDS_P2;PMS_P1;PMS_P2;Temp;Humidity;BMP_temperature;BMP_pressure;BME280_temperature;BME280_humidity;BME280_pressure;Samples;Min_cycle;Max_cycle;Signal;HPM_P1;HPM_P2
2022/12/01 00:00:04;;;;;;;15.07;10.45;;;;;;;4.94;100.00;101669.03;695911;28;1450;-65
2022/12/01 00:00:25;;;;;;;16.13;10.52;;;;;;;4.93;100.00;101673.34;695390;28;1238;-65
2022/12/01 00:00:45;;;;;;;15.55;10.20;;;;;;;4.90;100.00;101673.25;698657;28;4389;-65
2022/12/01 00:01:07;;;;;;;16.67;10.70;;;;;;;4.91;100.00;101667.22;699574;28;910;-66
2022/12/01 00:01:28;;;;;;;18.67;10.77;;;;;;;4.90;100.00;101668.06;699894;28;1336;-66
2022/12/01 00:01:50;;;;;;;15.10;10.50;;;;;;;4.89;100.00;101673.19;699677;28;1281;-65
2022/12/01 00:02:10;;;;;;;16.53;10.60;;;;;;;4.91;100.00;101668.94;697681;28;1240;-65
2022/12/01 00:02:30;;;;;;;18.93;11.23;;;;;;;4.90;100.00;101664.56;698347;28;1408;-65
2022/12/01 00:02:51;;;;;;;17.40;10.80;;;;;;;4.90;100.00;101674.94;695311;28;1326;-66
2022/12/01 00:03:11;;;;;;;17.07;10.23;;;;;;;4.91;100.00;101674.13;694824;28;1309;-65
2022/12/01 00:03:32;;;;;;;17.27;10.52;;;;;;;4.92;100.00;101668.13;695519;28;1298;-65
2022/12/01 00:03:53;;;;;;;18.15;10.63;;;;;;;4.94;100.00;101671.63;695294;28;4330;-65
2022/12/01 00:04:13;;;;;;;18.43;10.60;;;;;;;4.94;100.00;101671.63;697837;28;1595;-65
2022/12/01 00:04:33;;;;;;;17.47;10.77;;;;;;;4.94;100.00;101669.03;698345;28;1305;-65
2022/12/01 00:04:54;;;;;;;18.07;10.93;;;;;;;4.92;100.00;101670.72;700583;28;1523;-65
2022/12/01 00:05:15;;;;;;;18.00;10.88;;;;;;;4.90;100.00;101668.06;700161;28;1385;-65
2022/12/01 00:05:35;;;;;;;16.63;10.75;;;;;;;4.90;100.00;101674.94;698710;28;2153;-65
2022/12/01 00:06:16;;;;;;;15.83;9.97;;;;;;;4.90;100.00;101672.34;698627;28;2146;-65
2022/12/01 00:06:36;;;;;;;16.95;10.65;;;;;;;4.88;100.00;101668.84;698742;28;1207;-65
2022/12/01 00:06:57;;;;;;;15.97;10.70;;;;;;;4.87;100.00;101673.13;700714;28;4626;-65
2022/12/01 00:07:17;;;;;;;17.55;11.13;;;;;;;4.87;100.00;101672.25;699311;28;1562;-65
2022/12/01 00:07:37;;;;;;;19.03;11.00;;;;;;;4.88;100.00;101671.44;699784;28;1283;-66
2022/12/01 00:07:58;;;;;;;17.42;11.00;;;;;;;4.87;100.00;101669.66;701077;28;1353;-65
2022/12/01 00:08:18;;;;;;;16.77;10.50;;;;;;;4.87;100.00;101672.25;700677;28;1356;-65
2022/12/01 00:08:39;;;;;;;17.83;11.02;;;;;;;4.86;100.00;101670.47;699226;28;1500;-65
2022/12/01 00:10:25;;;;;;;16.83;10.77;;;;;;;4.85;100.00;101669.63;699985;28;1533;-65
2022/12/01 00:10:45;;;;;;;18.67;10.82;;;;;;;4.87;100.00;101674.84;700593;28;1305;-66
2022/12/01 00:11:13;;;;;;;17.73;11.00;;;;;;;4.88;100.00;101668.84;702249;28;1364;-65
2022/12/01 00:11:35;;;;;;;17.30;10.85;;;;;;;4.90;100.00;101668.06;705381;27;1268;-65
2022/12/01 00:11:56;;;;;;;17.30;10.77;;;;;;;4.90;100.00;101672.34;705962;27;1265;-65
2022/12/01 00:12:16;;;;;;;18.08;11.32;;;;;;;4.91;100.00;101668.94;703845;27;1602;-65
2022/12/01 00:12:42;;;;;;;17.77;11.20;;;;;;;4.92;100.00;101666.41;702998;28;1312;-66
2022/12/01 00:13:04;;;;;;;17.88;11.32;;;;;;;4.92;100.00;101674.16;702684;28;4730;-65
2022/12/01 00:13:25;;;;;;;18.75;11.43;;;;;;;4.91;100.00;101680.19;702284;28;1226;-65
2022/12/01 00:13:45;;;;;;;16.57;10.70;;;;;;;4.90;100.00;101677.53;700978;28;1329;-65
2022/12/01 00:14:06;;;;;;;16.40;10.50;;;;;;;4.87;100.00;101680.03;700006;28;1379;-65
2022/12/01 00:14:26;;;;;;;17.40;10.68;;;;;;;4.88;100.00;101668.84;700451;28;1283;-65
2022/12/01 00:14:53;;;;;;;16.33;10.47;;;;;;;4.88;100.00;101672.31;699215;28;1427;-65
2022/12/01 00:15:14;;;;;;;17.13;11.05;;;;;;;4.91;100.00;101663.75;700483;28;1438;-65
2022/12/01 00:15:36;;;;;;;17.17;11.00;;;;;;;4.91;100.00;101677.59;700574;28;1383;-65
2022/12/01 00:15:56;;;;;;;17.17;10.88;;;;;;;4.87;100.00;101672.25;699484;28;4262;-65
2022/12/01 00:16:16;;;;;;;17.88;11.23;;;;;;;4.83;100.00;101676.47;700010;28;1389;-65
2022/12/01 00:16:39;;;;;;;19.00;11.10;;;;;;;4.84;100.00;101673.03;698935;28;1360;-65
2022/12/01 00:16:59;;;;;;;18.85;11.50;;;;;;;4.86;100.00;101673.06;699679;28;927;-65
2022/12/01 00:17:20;;;;;;;17.23;10.83;;;;;;;4.87;100.00;101674.84;700456;28;1495;-66
2022/12/01 00:17:42;;;;;;;18.27;11.35;;;;;;;4.87;100.00;101672.25;699504;28;1419;-65
2022/12/01 00:18:04;;;;;;;17.33;11.75;;;;;;;4.87;100.00;101667.06;700567;28;1273;-65
2022/12/01 00:18:24;;;;;;;18.20;11.07;;;;;;;4.86;100.00;101670.47;700771;28;1308;-65
2022/12/01 00:18:48;;;;;;;18.13;11.07;;;;;;;4.84;100.00;101672.16;701472;28;4577;-65
2022/12/01 00:19:09;;;;;;;18.30;11.68;;;;;;;4.82;100.00;101676.38;701585;28;1134;-65
2022/12/01 00:19:29;;;;;;;19.17;11.43;;;;;;;4.81;100.00;101672.06;702260;28;1317;-65
2022/12/01 00:19:49;;;;;;;18.70;11.30;;;;;;;4.80;100.00;101673.75;701515;28;1404;-65
2022/12/01 00:20:11;;;;;;;18.20;11.17;;;;;;;4.80;100.00;101670.28;701777;28;4004;-65
2022/12/01 00:20:35;;;;;;;19.85;11.20;;;;;;;4.81;100.00;101670.31;700341;28;1486;-65
2022/12/01 00:20:55;;;;;;;17.48;11.15;;;;;;;4.83;100.00;101675.56;698487;28;1094;-65
2022/12/01 00:21:17;;;;;;;16.93;10.73;;;;;;;4.83;100.00;101672.97;696836;28;1425;-65
2022/12/01 00:21:37;;;;;;;20.52;11.02;;;;;;;4.84;100.00;101678.19;698230;28;1459;-64
2022/12/01 00:21:58;;;;;;;18.90;10.97;;;;;;;4.84;100.00;101672.16;698320;28;4396;-65
2022/12/01 00:22:18;;;;;;;17.35;11.15;;;;;;;4.84;100.00;101672.16;701812;28;1523;-65
2022/12/01 00:22:46;;;;;;;18.10;11.77;;;;;;;4.85;100.00;101674.78;703916;28;1356;-65
2022/12/01 00:23:06;;;;;;;16.38;10.75;;;;;;;4.85;100.00;101671.34;701772;28;1383;-65
2022/12/01 00:23:26;;;;;;;18.23;10.63;;;;;;;4.85;100.00;101672.19;703158;28;1277;-65
2022/12/01 00:23:51;;;;;;;17.13;10.93;;;;;;;4.84;100.00;101670.44;703825;28;1504;-65
2022/12/01 00:24:11;;;;;;;17.85;11.38;;;;;;;4.85;100.00;101672.19;700531;28;1352;-66
2022/12/01 00:24:32;;;;;;;17.60;10.73;;;;;;;4.86;100.00;101668.78;699473;28;1321;-65
2022/12/01 00:24:52;;;;;;;18.63;11.10;;;;;;;4.87;100.00;101672.25;698550;28;4537;-65
2022/12/01 00:25:15;;;;;;;18.93;11.60;;;;;;;4.88;100.00;101674.03;699659;28;1305;-65
2022/12/01 00:25:35;;;;;;;18.83;11.60;;;;;;;4.89;100.00;101665.44;699798;28;1476;-65
2022/12/01 00:26:01;;;;;;;18.53;11.70;;;;;;;4.92;100.00;101673.31;700362;28;1344;-65
2022/12/01 00:26:23;;;;;;;17.83;11.57;;;;;;;4.92;100.00;101668.13;699701;28;1586;-65
2022/12/01 00:26:43;;;;;;;17.75;11.30;;;;;;;4.90;100.00;101667.16;700045;28;1528;-65
2022/12/01 00:27:04;;;;;;;18.10;11.48;;;;;;;4.88;100.00;101668.84;698441;28;1380;-65
2022/12/01 00:27:25;;;;;;;19.73;11.70;;;;;;;4.88;100.00;101663.66;700709;28;1273;-65
2022/12/01 00:27:49;;;;;;;18.60;11.53;;;;;;;4.90;100.00;101664.56;700111;28;4384;-65
2022/12/01 00:28:10;;;;;;;17.08;10.80;;;;;;;4.94;100.00;101672.53;700264;28;1475;-65
2022/12/01 00:28:30;;;;;;;18.13;11.07;;;;;;;4.95;100.00;101671.69;698575;28;1390;-65
2022/12/01 00:28:53;;;;;;;18.70;11.40;;;;;;;4.93;100.00;101672.47;699362;28;1396;-65
2022/12/01 00:29:14;;;;;;;17.75;11.02;;;;;;;4.92;100.00;101670.72;699812;28;1360;-65
2022/12/01 00:29:34;;;;;;;17.40;10.93;;;;;;;4.92;100.00;101668.13;697267;28;1341;-66
2022/12/01 00:29:55;;;;;;;17.33;11.00;;;;;;;4.90;100.00;101664.56;698797;28;1341;-65
2022/12/01 00:30:16;;;;;;;18.20;11.55;;;;;;;4.92;100.00;101670.72;698227;28;1353;-66
2022/12/01 00:30:37;;;;;;;17.63;11.40;;;;;;;4.93;100.00;101670.75;700026;28;1689;-65
2022/12/01 00:30:58;;;;;;;18.33;11.43;;;;;;;4.94;100.00;101662.16;699250;28;4337;-65
2022/12/01 00:31:19;;;;;;;19.10;11.00;;;;;;;4.93;100.00;101665.56;700373;28;1384;-66
2022/12/01 00:31:39;;;;;;;20.37;10.93;;;;;;;4.93;100.00;101662.13;699632;28;1404;-65
2022/12/01 00:32:00;;;;;;;18.40;11.25;;;;;;;4.91;100.00;101662.03;698508;28;1495;-65
2022/12/01 00:32:20;;;;;;;17.57;10.90;;;;;;;4.91;100.00;101669.81;700085;28;1289;-65
2022/12/01 00:32:40;;;;;;;16.87;10.60;;;;;;;4.90;100.00;101665.47;699610;28;1396;-65
2022/12/01 00:33:01;;;;;;;16.58;10.73;;;;;;;4.91;100.00;101669.81;699723;28;1511;-65
2022/12/01 00:33:21;;;;;;;16.67;10.10;;;;;;;4.90;100.00;101668.06;700585;28;1356;-65
2022/12/01 00:33:41;;;;;;;16.33;10.55;;;;;;;4.90;100.00;101667.16;699579;28;4547;-65
2022/12/01 00:34:02;;;;;;;18.77;11.57;;;;;;;4.90;100.00;101669.75;699278;28;1579;-65
2022/12/01 00:34:24;;;;;;;18.05;11.45;;;;;;;4.87;100.00;101664.47;700249;28;1662;-65
2022/12/01 00:34:44;;;;;;;17.30;10.95;;;;;;;4.87;100.00;101669.66;700172;28;1462;-65
2022/12/01 00:35:06;;;;;;;17.13;11.37;;;;;;;4.85;100.00;101668.75;700358;28;1499;-65
2022/12/01 00:35:26;;;;;;;18.92;11.13;;;;;;;4.86;100.00;101671.38;698096;28;1258;-65
2022/12/01 00:35:47;;;;;;;18.00;11.63;;;;;;;4.85;100.00;101671.34;696800;28;1979;-65
2022/12/01 00:36:08;;;;;;;19.15;11.50;;;;;;;4.86;100.00;101665.28;696449;28;1557;-65
2022/12/01 00:36:29;;;;;;;19.10;11.23;;;;;;;4.85;100.00;101668.75;696892;28;1298;-66
2022/12/01 00:36:50;;;;;;;17.67;11.02;;;;;;;4.86;100.00;101660.13;696624;28;4616;-65
2022/12/01 00:37:10;;;;;;;17.67;11.23;;;;;;;4.87;100.00;101667.06;697476;28;1431;-65
2022/12/01 00:37:33;;;;;;;19.80;11.75;;;;;;;4.87;100.00;101664.47;699829;28;1365;-65
2022/12/01 00:37:53;;;;;;;18.33;11.02;;;;;;;4.88;100.00;101661.94;699124;28;1391;-65
2022/12/01 00:38:13;;;;;;;17.10;10.90;;;;;;;4.88;100.00;101668.84;697617;28;1405;-65
2022/12/01 00:38:34;;;;;;;18.43;11.47;;;;;;;4.89;100.00;101675.78;700501;28;1581;-65
2022/12/01 00:38:55;;;;;;;18.13;11.60;;;;;;;4.88;100.00;101668.84;700061;28;5025;-65
2022/12/01 00:39:16;;;;;;;18.10;11.45;;;;;;;4.87;100.00;101667.94;700536;28;1336;-65
2022/12/01 00:39:36;;;;;;;16.70;10.85;;;;;;;4.86;100.00;101666.19;700553;28;1511;-65
2022/12/01 00:39:57;;;;;;;17.43;11.07;;;;;;;4.85;100.00;101668.75;697653;28;4723;-65
2022/12/01 00:40:18;;;;;;;17.65;11.27;;;;;;;4.84;100.00;101666.97;698855;28;1483;-65
2022/12/01 00:40:38;;;;;;;17.50;11.07;;;;;;;4.85;100.00;101673.91;697162;28;1620;-64
2022/12/01 00:40:58;;;;;;;17.23;11.40;;;;;;;4.86;100.00;101671.38;697964;28;1294;-65
2022/12/01 00:41:19;;;;;;;17.50;11.23;;;;;;;4.87;100.00;101672.25;697000;28;1352;-65
2022/12/01 00:41:40;;;;;;;18.23;11.07;;;;;;;4.86;100.00;101665.28;697307;28;1364;-65
2022/12/01 00:42:00;;;;;;;19.20;11.77;;;;;;;4.86;100.00;101670.47;700508;28;1431;-66
2022/12/01 00:42:20;;;;;;;18.40;11.30;;;;;;;4.85;100.00;101661.84;698611;28;1478;-65
2022/12/01 00:42:41;;;;;;;16.83;10.98;;;;;;;4.84;100.00;101665.25;699107;28;4383;-65
2022/12/01 00:43:01;;;;;;;18.73;11.60;;;;;;;4.83;100.00;101665.19;697847;28;1531;-65
2022/12/01 00:43:23;;;;;;;18.90;11.70;;;;;;;4.83;100.00;101668.69;697883;28;1350;-65
2022/12/01 00:43:43;;;;;;;18.65;11.45;;;;;;;4.84;100.00;101661.78;697781;28;1677;-65
2022/12/01 00:44:04;;;;;;;19.30;11.20;;;;;;;4.88;100.00;101668.84;697771;28;1459;-65
2022/12/01 00:44:24;;;;;;;18.35;11.10;;;;;;;4.89;100.00;101665.44;697015;28;1239;-65
2022/12/01 00:44:46;;;;;;;17.30;11.23;;;;;;;4.89;100.00;101665.44;695915;28;1509;-65
2022/12/01 00:45:07;;;;;;;18.55;11.32;;;;;;;4.88;100.00;101668.84;698519;28;1447;-66
2022/12/01 00:45:27;;;;;;;17.73;11.60;;;;;;;4.88;100.00;101674.91;697842;28;1443;-65
2022/12/01 00:45:47;;;;;;;18.00;11.18;;;;;;;4.88;100.00;101674.03;697779;28;4474;-65
2022/12/01 00:46:08;;;;;;;17.93;11.23;;;;;;;4.89;100.00;101668.88;698405;28;1384;-65
2022/12/01 00:46:28;;;;;;;18.45;11.63;;;;;;;4.89;100.00;101670.63;697958;28;1277;-65
2022/12/01 00:46:49;;;;;;;19.40;11.70;;;;;;;4.90;100.00;101662.88;700304;28;1198;-65
2022/12/01 00:47:09;;;;;;;19.33;11.60;;;;;;;4.91;100.00;101671.53;699731;28;1386;-65
2022/12/01 00:47:29;;;;;;;18.20;11.37;;;;;;;4.90;100.00;101668.06;697296;28;1416;-65
2022/12/01 00:47:50;;;;;;;17.02;11.07;;;;;;;4.90;100.00;101669.75;698016;28;1250;-65
2022/12/01 00:48:10;;;;;;;18.13;11.03;;;;;;;4.90;100.00;101672.34;697936;28;1416;-65
2022/12/01 00:48:30;;;;;;;18.03;10.90;;;;;;;4.88;100.00;101669.72;697574;28;1282;-65
2022/12/01 00:48:51;;;;;;;16.98;11.18;;;;;;;4.88;100.00;101668.84;697302;28;4485;-65
2022/12/01 00:49:12;;;;;;;17.00;11.47;;;;;;;4.90;100.00;101672.34;698136;28;1330;-65
2022/12/01 00:49:33;;;;;;;19.33;12.15;;;;;;;4.89;100.00;101673.19;699445;28;1362;-65
2022/12/01 00:49:53;;;;;;;18.47;11.63;;;;;;;4.89;100.00;101668.03;699841;28;1364;-65
2022/12/01 00:50:13;;;;;;;18.63;11.50;;;;;;;4.89;100.00;101673.19;702544;28;1340;-65
2022/12/01 00:50:34;;;;;;;19.10;11.48;;;;;;;4.88;100.00;101668.84;702179;28;1419;-65
2022/12/01 00:50:54;;;;;;;17.37;11.40;;;;;;;4.88;100.00;101669.72;702628;28;1336;-65
2022/12/01 00:51:15;;;;;;;18.08;11.52;;;;;;;4.89;100.00;101671.47;702046;28;1387;-65
2022/12/01 00:51:36;;;;;;;19.60;11.63;;;;;;;4.88;100.00;101671.44;701850;28;1324;-66
2022/12/01 00:51:56;;;;;;;17.35;11.50;;;;;;;4.85;100.00;101669.63;702218;28;4358;-65
2022/12/01 00:52:18;;;;;;;17.30;11.30;;;;;;;4.84;100.00;101675.59;699741;28;1225;-65
2022/12/01 00:52:38;;;;;;;18.60;11.73;;;;;;;4.84;100.00;101674.75;697419;28;1317;-66
2022/12/01 00:52:59;;;;;;;18.37;11.53;;;;;;;4.86;100.00;101675.66;697064;28;1361;-66
2022/12/01 00:53:20;;;;;;;18.33;10.95;;;;;;;4.87;100.00;101672.25;697349;28;1194;-65
2022/12/01 00:53:40;;;;;;;18.02;11.70;;;;;;;4.88;100.00;101664.53;697848;28;1443;-65
2022/12/01 00:54:00;;;;;;;18.83;11.90;;;;;;;4.89;100.00;101670.63;698193;28;1365;-65
2022/12/01 00:54:21;;;;;;;19.17;11.67;;;;;;;4.89;100.00;101670.63;697921;28;1520;-65
2022/12/01 00:54:41;;;;;;;18.80;11.27;;;;;;;4.89;100.00;101665.44;698602;28;4398;-66
2022/12/01 00:55:02;;;;;;;18.73;11.48;;;;;;;4.88;100.00;101669.72;695815;28;1540;-66
2022/12/01 00:55:22;;;;;;;17.43;10.90;;;;;;;4.89;100.00;101668.88;696459;28;1185;-65
2022/12/01 00:55:43;;;;;;;18.58;11.10;;;;;;;4.89;100.00;101674.06;697835;28;1476;-65
2022/12/01 00:56:03;;;;;;;18.50;11.07;;;;;;;4.89;100.00;101670.63;698577;28;1566;-66
2022/12/01 00:56:24;;;;;;;19.77;11.85;;;;;;;4.92;100.00;101670.72;700335;28;895;-65
2022/12/01 00:56:44;;;;;;;18.40;11.30;;;;;;;4.91;100.00;101668.94;699938;28;1329;-65
2022/12/01 00:57:05;;;;;;;18.25;11.80;;;;;;;4.91;100.00;101669.81;703148;28;1237;-66
2022/12/01 00:57:25;;;;;;;18.53;12.00;;;;;;;4.91;100.00;101671.53;705308;27;1449;-66
2022/12/01 00:57:45;;;;;;;17.40;11.55;;;;;;;4.91;100.00;101668.94;704397;27;4586;-71
2022/12/01 00:58:06;;;;;;;17.27;11.40;;;;;;;4.91;100.00;101666.34;702903;28;1328;-66
2022/12/01 00:58:26;;;;;;;17.88;11.38;;;;;;;4.92;100.00;101673.31;703095;28;1206;-65
2022/12/01 00:58:48;;;;;;;17.33;11.15;;;;;;;4.91;100.00;101669.81;699891;28;1206;-65
2022/12/01 00:59:08;;;;;;;17.90;11.10;;;;;;;4.92;100.00;101669.00;697561;28;1521;-65
2022/12/01 00:59:29;;;;;;;17.90;11.00;;;;;;;4.92;100.00;101675.91;694675;28;1447;-65
2022/12/01 00:59:49;;;;;;;18.97;11.53;;;;;;;4.91;100.00;101674.13;697546;28;1372;-65
2022/12/01 01:00:11;;;;;;;19.57;11.47;;;;;;;4.91;100.00;101674.13;697543;28;1338;-65
2022/12/01 01:00:31;;;;;;;18.50;11.43;;;;;;;4.90;100.00;101673.25;697651;28;1178;-66
2022/12/01 01:00:59;;;;;;;18.15;11.57;;;;;;;4.90;100.00;101678.44;699868;28;4488;-65
2022/12/01 01:01:20;;;;;;;19.35;11.93;;;;;;;4.92;100.00;101675.91;699190;28;1467;-66
2022/12/01 01:01:40;;;;;;;20.87;12.03;;;;;;;4.91;100.00;101674.13;697674;28;974;-66
2022/12/01 01:02:05;;;;;;;19.77;11.67;;;;;;;4.91;100.00;101681.91;697623;28;1362;-66
2022/12/01 01:02:25;;;;;;;21.60;12.48;;;;;;;4.90;100.00;101674.94;698103;28;1259;-65
2022/12/01 01:02:46;;;;;;;18.10;11.63;;;;;;;4.91;100.00;101676.72;697249;28;1203;-65
2022/12/01 01:03:06;;;;;;;18.67;11.70;;;;;;;4.91;100.00;101676.72;697340;28;1305;-65
2022/12/01 01:03:28;;;;;;;18.60;12.10;;;;;;;4.91;100.00;101676.72;699493;28;1318;-65
2022/12/01 01:03:48;;;;;;;19.23;12.27;;;;;;;4.91;100.00;101679.31;699656;28;4634;-65
2022/12/01 01:04:09;;;;;;;19.27;12.20;;;;;;;4.90;100.00;101677.53;702049;28;1321;-66
2022/12/01 01:04:30;;;;;;;19.57;12.30;;;;;;;4.91;100.00;101682.75;703212;28;1258;-65
2022/12/01 01:04:51;;;;;;;19.00;12.00;;;;;;;4.90;100.00;101677.53;702080;28;1309;-65
2022/12/01 01:05:11;;;;;;;19.20;11.70;;;;;;;4.89;100.00;101680.97;702738;28;1253;-65
2022/12/01 01:05:35;;;;;;;20.43;12.40;;;;;;;4.90;100.00;101677.53;702602;28;1292;-65
2022/12/01 01:05:55;;;;;;;19.98;12.00;;;;;;;4.90;100.00;101675.84;701630;28;1214;-65
2022/12/01 01:06:16;;;;;;;19.67;12.07;;;;;;;4.92;100.00;101681.06;699129;28;1266;-65
2022/12/01 01:06:36;;;;;;;19.37;11.60;;;;;;;4.92;100.00;101678.47;700051;28;1159;-66
2022/12/01 01:06:56;;;;;;;19.43;12.30;;;;;;;4.92;100.00;101675.91;699615;28;4410;-65
2022/12/01 01:07:17;;;;;;;19.35;12.25;;;;;;;4.93;100.00;101677.66;700015;28;1340;-66
2022/12/01 01:07:38;;;;;;;20.67;12.57;;;;;;;4.93;100.00;101677.66;699817;28;1309;-66
2022/12/01 01:07:58;;;;;;;21.30;12.70;;;;;;;4.93;100.00;101680.25;699863;28;1282;-66
2022/12/01 01:08:18;;;;;;;19.17;11.87;;;;;;;4.93;100.00;101677.66;703003;28;1221;-65
2022/12/01 01:08:39;;;;;;;19.77;12.02;;;;;;;4.94;100.00;101680.31;702595;28;1467;-65
2022/12/01 01:09:00;;;;;;;20.15;12.15;;;;;;;4.95;100.00;101681.19;703203;28;1542;-65
2022/12/01 01:09:21;;;;;;;19.70;12.32;;;;;;;4.95;100.00;101676.00;701739;28;1404;-65
2022/12/01 01:09:41;;;;;;;20.30;11.93;;;;;;;4.94;100.00;101675.13;701092;28;4355;-65
2022/12/01 01:10:01;;;;;;;20.65;12.32;;;;;;;4.94;100.00;101679.41;702451;28;1407;-65
2022/12/01 01:10:22;;;;;;;21.00;12.80;;;;;;;4.93;100.00;101680.25;700366;28;1392;-65
2022/12/01 01:10:47;;;;;;;19.15;12.20;;;;;;;4.94;100.00;101679.41;700882;28;1222;-65
2022/12/01 01:11:08;;;;;;;19.63;11.90;;;;;;;4.94;100.00;101684.59;699174;28;1373;-66
2022/12/01 01:11:28;;;;;;;18.52;11.90;;;;;;;4.93;100.00;101682.84;700072;28;1216;-65
2022/12/01 01:11:48;;;;;;;20.83;11.80;;;;;;;4.92;100.00;101675.91;699599;28;1419;-65
2022/12/01 01:12:09;;;;;;;23.87;12.30;;;;;;;4.91;100.00;101684.47;698182;28;1533;-66
2022/12/01 01:12:29;;;;;;;19.83;12.07;;;;;;;4.91;100.00;101685.34;698297;28;1191;-66
2022/12/01 01:12:50;;;;;;;19.60;12.07;;;;;;;4.94;100.00;101684.59;697832;28;4580;-65
2022/12/01 01:13:12;;;;;;;20.90;12.27;;;;;;;4.96;100.00;101682.94;698228;28;1404;-65
2022/12/01 01:13:34;;;;;;;20.90;12.50;;;;;;;4.93;100.00;101683.72;698073;28;1333;-65
2022/12/01 01:13:55;;;;;;;20.23;12.70;;;;;;;4.91;100.00;101687.06;699643;28;1650;-65
2022/12/01 01:14:15;;;;;;;21.90;12.90;;;;;;;4.90;100.00;101683.63;698970;28;1344;-65
2022/12/01 01:14:36;;;;;;;22.23;13.27;;;;;;;4.88;100.00;101681.78;699673;28;1415;-66
2022/12/01 01:14:56;;;;;;;21.77;13.10;;;;;;;4.88;100.00;101682.66;700705;28;1483;-65
2022/12/01 01:15:16;;;;;;;22.08;13.25;;;;;;;4.89;100.00;101680.97;700310;28;1373;-65
2022/12/01 01:15:37;;;;;;;21.47;12.80;;;;;;;4.91;100.00;101684.47;697566;28;1336;-65
2022/12/01 01:16:00;;;;;;;21.05;12.57;;;;;;;4.91;100.00;101681.91;697124;28;4342;-65
2022/12/01 01:16:21;;;;;;;22.30;13.18;;;;;;;4.89;100.00;101681.84;697054;28;3372;-66
2022/12/01 01:16:41;;;;;;;23.77;13.13;;;;;;;4.91;100.00;101684.47;697350;28;1555;-65
2022/12/01 01:17:02;;;;;;;21.50;12.50;;;;;;;4.90;100.00;101682.72;697984;28;1348;-66
2022/12/01 01:17:22;;;;;;;21.42;12.60;;;;;;;4.90;100.00;101685.31;698449;28;1558;-66
2022/12/01 01:17:42;;;;;;;21.77;12.67;;;;;;;4.89;100.00;101687.03;699158;28;1539;-65
2022/12/01 01:18:04;;;;;;;22.98;13.10;;;;;;;4.91;100.00;101684.47;700145;28;1542;-66
2022/12/01 01:18:24;;;;;;;22.25;13.20;;;;;;;4.89;100.00;101683.56;698113;28;1191;-65
2022/12/01 01:18:45;;;;;;;22.13;12.98;;;;;;;4.90;100.00;101685.31;697875;28;4373;-65
2022/12/01 01:19:06;;;;;;;22.83;13.35;;;;;;;4.90;100.00;101682.72;698195;28;1268;-65
2022/12/01 01:19:26;;;;;;;23.80;13.40;;;;;;;4.90;100.00;101686.22;697938;28;1255;-65
2022/12/01 01:19:47;;;;;;;23.48;12.95;;;;;;;4.89;100.00;101686.16;697562;28;1427;-64
2022/12/01 01:20:08;;;;;;;22.50;12.97;;;;;;;4.90;100.00;101690.50;697587;28;1443;-66
2022/12/01 01:20:28;;;;;;;22.50;13.43;;;;;;;4.87;100.00;101688.66;701007;28;1388;-65
2022/12/01 01:21:00;;;;;;;23.45;13.80;;;;;;;4.87;100.00;101685.22;699209;28;1257;-65
2022/12/01 01:21:21;;;;;;;24.27;13.80;;;;;;;4.87;100.00;101688.66;700112;28;1345;-65
2022/12/01 01:21:41;;;;;;;23.23;14.10;;;;;;;4.87;100.00;101686.06;700972;28;4476;-65
2022/12/01 01:22:02;;;;;;;24.27;13.57;;;;;;;4.88;100.00;101684.38;699940;28;1396;-65
2022/12/01 01:22:22;;;;;;;22.13;12.82;;;;;;;4.89;100.00;101688.75;698902;28;1658;-65
2022/12/01 01:22:42;;;;;;;21.77;12.83;;;;;;;4.89;100.00;101681.84;699840;28;1696;-65
2022/12/01 01:23:03;;;;;;;22.27;12.97;;;;;;;4.89;100.00;101692.22;699702;28;1555;-65
2022/12/01 01:23:23;;;;;;;22.50;13.30;;;;;;;4.99;100.00;101683.03;699594;28;1542;-65
2022/12/01 01:23:44;;;;;;;20.63;12.93;;;;;;;5.00;100.00;101683.91;697922;28;1323;-65
2022/12/01 01:24:05;;;;;;;20.88;13.13;;;;;;;5.00;100.00;101683.91;703372;28;1452;-65
2022/12/01 01:24:25;;;;;;;23.10;13.33;;;;;;;4.98;100.00;101683.88;700843;28;1340;-65
2022/12/01 01:24:46;;;;;;;23.00;12.75;;;;;;;4.96;100.00;101688.13;700100;28;4481;-65
2022/12/01 01:25:07;;;;;;;22.97;12.60;;;;;;;4.95;100.00;101687.22;700491;28;1463;-65
2022/12/01 01:25:27;;;;;;;21.05;12.45;;;;;;;4.93;100.00;101683.72;700711;28;1360;-65
2022/12/01 01:25:47;;;;;;;21.93;12.87;;;;;;;4.93;100.00;101685.44;700888;28;1401;-65
2022/12/01 01:26:15;;;;;;;22.27;12.90;;;;;;;4.93;100.00;101685.44;698337;28;1387;-65
2022/12/01 01:26:37;;;;;;;22.45;12.20;;;;;;;4.90;100.00;101681.03;698643;28;1325;-65
2022/12/01 01:26:58;;;;;;;21.17;12.33;;;;;;;4.89;100.00;101684.44;700472;28;1353;-65
2022/12/01 01:27:18;;;;;;;20.33;12.20;;;;;;;4.89;100.00;101681.84;697960;28;1621;-65
2022/12/01 01:27:38;;;;;;;21.20;12.33;;;;;;;4.88;100.00;101684.38;694928;28;4734;-64
2022/12/01 01:27:59;;;;;;;21.27;12.33;;;;;;;4.87;100.00;101677.44;695356;28;1456;-65
2022/12/01 01:28:19;;;;;;;21.85;12.95;;;;;;;4.88;100.00;101684.38;695155;28;1591;-65
2022/12/01 01:28:42;;;;;;;22.87;13.00;;;;;;;4.88;100.00;101689.56;695371;28;1563;-65
2022/12/01 01:29:06;;;;;;;21.05;12.65;;;;;;;4.87;100.00;101692.97;696395;28;1615;-65
2022/12/01 01:29:26;;;;;;;20.75;12.57;;;;;;;4.87;100.00;101688.66;698135;28;1226;-65
2022/12/01 01:29:47;;;;;;;20.00;12.05;;;;;;;4.87;100.00;101687.78;700123;28;1530;-65
2022/12/01 01:30:08;;;;;;;21.70;12.57;;;;;;;4.87;100.00;101685.22;700120;28;1305;-65
2022/12/01 01:30:28;;;;;;;22.33;12.90;;;;;;;4.87;100.00;101687.78;699960;28;1448;-65
2022/12/01 01:30:48;;;;;;;21.93;12.20;;;;;;;4.87;100.00;101682.63;700101;28;4379;-65
2022/12/01 01:31:11;;;;;;;22.58;12.93;;;;;;;4.91;100.00;101684.47;699876;28;1436;-65
2022/12/01 01:31:32;;;;;;;21.38;12.73;;;;;;;4.92;100.00;101692.31;699045;28;1380;-65
2022/12/01 01:31:53;;;;;;;19.48;12.68;;;;;;;4.94;100.00;101693.25;699891;28;1333;-65
2022/12/01 01:32:13;;;;;;;19.53;12.13;;;;;;;4.94;100.00;101694.94;700774;28;1278;-65
2022/12/01 01:32:33;;;;;;;20.83;12.85;;;;;;;4.92;100.00;101692.31;702623;28;1368;-65
2022/12/01 01:32:54;;;;;;;22.33;12.77;;;;;;;4.91;100.00;101687.06;702612;28;1319;-65
2022/12/01 01:33:14;;;;;;;21.33;12.73;;;;;;;4.89;100.00;101689.63;702571;28;1237;-65
2022/12/01 01:33:35;;;;;;;20.75;12.25;;;;;;;4.88;100.00;101689.56;702790;28;1383;-65
2022/12/01 01:33:56;;;;;;;19.30;11.38;;;;;;;4.90;100.00;101693.06;698791;28;4324;-65
2022/12/01 01:34:16;;;;;;;20.20;12.23;;;;;;;4.89;100.00;101687.03;697550;28;1316;-65
2022/12/01 01:34:38;;;;;;;20.23;12.20;;;;;;;4.91;100.00;101690.53;695975;28;1555;-65
2022/12/01 01:34:58;;;;;;;19.10;11.48;;;;;;;4.91;100.00;101690.53;697250;28;1479;-64
2022/12/01 01:35:18;;;;;;;19.37;11.10;;;;;;;4.91;100.00;101689.66;697695;28;1285;-65
2022/12/01 01:35:39;;;;;;;19.33;11.77;;;;;;;4.87;100.00;101691.25;698139;28;1357;-65
2022/12/01 01:36:00;;;;;;;19.90;11.90;;;;;;;4.84;100.00;101691.16;700602;28;1979;-65
2022/12/01 01:36:23;;;;;;;17.70;11.77;;;;;;;4.85;100.00;101694.66;700214;28;1281;-65
2022/12/01 01:36:44;;;;;;;18.13;11.27;;;;;;;4.86;100.00;101694.69;699511;28;4349;-65
2022/12/01 01:37:06;;;;;;;18.53;11.57;;;;;;;4.86;100.00;101688.63;700818;28;1254;-65
2022/12/01 01:37:27;;;;;;;22.60;12.02;;;;;;;4.86;100.00;101696.38;700837;28;1345;-65
2022/12/01 01:37:48;;;;;;;19.93;11.53;;;;;;;4.86;100.00;101691.22;700313;28;1388;-65
2022/12/01 01:38:10;;;;;;;18.10;11.18;;;;;;;4.86;100.00;101691.22;696916;28;1262;-65
2022/12/01 01:38:31;;;;;;;17.63;10.93;;;;;;;4.86;100.00;101688.63;697677;28;1344;-65
2022/12/01 01:38:52;;;;;;;18.67;11.43;;;;;;;4.86;100.00;101692.13;696604;28;5008;-65
2022/12/01 01:39:12;;;;;;;16.52;10.65;;;;;;;4.88;100.00;101687.84;696989;28;1353;-65